The Little Minch, United Kingdom
Current Conditions -  °F | °C
As of 5:50 PM on Friday 31 Oct 2014 (Local Time) from EGPL Reporting Station
Scattered Clouds Scattered Clouds  
Wind Chill: 54°   Ceiling: Unl
Heat Index: 54°   Visibility: 6mi
Dew Point: 52°   Wind: 14mph
Humidity: 94%   Direction: 200°SSW
Pressure: 29.53"   Gusts: NA
Location:  57.5°N, 7°W
Report Text: EGPL 311750Z AUTO 20012KT 9999 SCT009/// SCT024/// 12/11 Q1000
Loading
Personal Weather Stations






























Interactive Weather Map
Tropical Storm Tracking
New forecast layout! Learn more

10-Day Weather Forecast

Advertisements
Track Severe Weather on mobile